Flight Track Log - Related Links

Times and Time Zones

All times are in EDT time to prevent confusion due to time zone crossing. See the N201FR flight status page for this flight to view local times or setup timezone preferences in your user account.

Time Position Orientation Groundspeed Altitude Reporting Facility
EDT Latitude Longitude Course Direction KTS MPH feet Rate Location/Type
Tue 12:53:14 PM 39.9333 -104.6500 90° East 199 229 7,300  Level Denver TRACON
Tue 12:54:05 PM 39.9497 -104.5769 74° East 251 289 8,200 1,540 Climbing Denver Center
Tue 12:55:07 PM 39.9525 -104.4661 88° East 284 327 10,200 1,403 Climbing Denver Center
Tue 12:56:09 PM 39.9439 -104.3439 95° East 341 392 11,100 1,452 Climbing Denver Center
Tue 12:57:11 PM 39.9311 -104.2103 97° East 368 423 13,200 2,177 Climbing Denver Center
Tue 12:58:00 PM 39.8833 -103.7212 90° East  Level FlightAware Approximate
Tue 12:58:13 PM 39.9164 -104.0611 97° East 383 441 15,600  Level Denver Center
Tue 12:59:15 PM 39.9022 -103.9206 97° East 391 450 17,400 1,645 Climbing Denver Center
Tue 01:00:17 PM 39.8861 -103.7597 97° East 414 476 19,000 1,500 Climbing Denver Center
Tue 01:01:19 PM 39.8981 -103.6075 84° East 424 488 20,500 1,440 Climbing Denver Center
Tue 01:02:22 PM 39.9186 -103.4331 81° East 448 516 22,000 1,500 Climbing Denver Center
Tue 01:03:23 PM 39.9358 -103.2744 82° East 459 528 23,600 1,610 Climbing Denver Center
Tue 01:04:25 PM 39.9569 -103.0903 81° East 463 533 25,300 1,306 Climbing Denver Center
Tue 01:05:27 PM 39.9733 -102.9278 82° East 470 541 26,300 1,016 Climbing Denver Center
Tue 01:06:29 PM 39.9919 -102.7650 81° East 475 547 27,400 1,113 Climbing Denver Center
Tue 01:07:31 PM 40.0117 -102.5714 82° East 483 556 28,600 1,008 Climbing Denver Center
Tue 01:08:34 PM 40.0300 -102.4017 82° East 490 564 29,500 1,152 Climbing Denver Center
Tue 01:09:36 PM 40.0508 -102.2078 82° East 487 560 31,000 1,161 Climbing Denver Center
Tue 01:10:38 PM 40.0667 -102.0403 83° East 486 559 31,900 968 Climbing Denver Center
Tue 01:11:40 PM 40.0878 -101.8461 82° East 486 559 33,000 1,016 Climbing Denver Center
Tue 01:12:42 PM 40.1033 -101.6803 83° East 483 556 34,000 919 Climbing Denver Center
Tue 01:13:44 PM 40.1219 -101.4869 83° East 481 554 34,900 484 Climbing Denver Center
Tue 01:14:46 PM 40.1361 -101.3206 84° East 482 555 35,000 48 Climbing Denver Center
Tue 01:15:48 PM 40.1553 -101.1292 82° East 478 550 35,000  Level Denver Center
Tue 01:16:50 PM 40.1706 -100.9647 83° East 479 551 35,000  Level Denver Center
Tue 01:17:52 PM 40.1883 -100.7725 83° East 478 550 35,000  Level Denver Center
Tue 01:18:54 PM 40.2031 -100.6081 83° East 478 550 35,000  Level Denver Center
Tue 01:19:56 PM 40.2386 -100.4208 76° East 480 552 35,000  Level Denver Center
Tue 01:20:58 PM 40.2706 -100.2619 75° East 476 548 35,000  Level Denver Center
Tue 01:22:01 PM 40.3092 -100.0750 75° East 478 550 35,000  Level Denver Center
Tue 01:23:03 PM 40.3408 -99.9150 75° East 477 549 35,000  Level Denver Center
Tue 01:24:05 PM 40.3744 -99.7461 75° East 472 543 35,000  Level Denver Center
Tue 01:25:07 PM 40.4064 -99.5797 76° East 473 544 35,000  Level Denver Center
Tue 01:26:09 PM 40.4461 -99.3794 75° East 473 544 35,000  Level Denver Center
Tue 01:27:11 PM 40.4781 -99.2136 76° East 472 543 35,000  Level Denver Center
Tue 01:28:13 PM 40.5106 -99.0469 76° East 473 544 35,000  Level Denver Center
Tue 01:29:15 PM 40.5425 -98.8797 76° East 474 545 35,000  Level Denver Center
Tue 01:30:28 PM 40.5789 -98.6814 76° East 472 543 35,000  Level Minneapolis Center
Tue 01:31:30 PM 40.6100 -98.5142 76° East 473 544 35,000  Level Minneapolis Center
Tue 01:32:32 PM 40.6469 -98.3139 76° East 473 544 35,000  Level Minneapolis Center
Tue 01:33:34 PM 40.6775 -98.1467 76° East 473 544 35,000  Level Minneapolis Center
Tue 01:34:36 PM 40.7078 -97.9794 77° East 472 543 35,000  Level Minneapolis Center
Tue 01:35:37 PM 40.7372 -97.8114 77° East 472 543 35,000  Level Minneapolis Center
Tue 01:36:39 PM 40.7669 -97.6411 77° East 476 548 35,000  Level Minneapolis Center
Tue 01:37:41 PM 40.7972 -97.4733 77° East 473 544 35,000  Level Minneapolis Center
Tue 01:38:43 PM 40.8281 -97.2972 77° East 474 545 35,000  Level Minneapolis Center
Tue 01:39:45 PM 40.8583 -97.1303 76° East 471 542 35,000  Level Minneapolis Center
Tue 01:40:47 PM 40.8917 -96.9278 78° East 470 541 35,000  Level Minneapolis Center
Tue 01:41:48 PM 40.9208 -96.7589 77° East 473 544 35,000  Level Minneapolis Center
Tue 01:42:50 PM 40.9450 -96.5886 79° East 472 543 35,000  Level Minneapolis Center
Tue 01:43:52 PM 40.9681 -96.4194 80° East 472 543 35,000  Level Minneapolis Center
Tue 01:44:54 PM 40.9911 -96.2494 80° East 473 544 35,000  Level Minneapolis Center
Tue 01:45:55 PM 41.0128 -96.0822 80° East 469 540 35,000  Level Minneapolis Center
Tue 01:46:57 PM 41.0394 -95.8800 80° East 469 540 35,000  Level Minneapolis Center
Tue 01:47:59 PM 41.0617 -95.7100 80° East 472 543 35,000  Level Minneapolis Center
Tue 01:49:01 PM 41.0839 -95.5406 80° East 472 543 35,000  Level Minneapolis Center
Tue 01:50:03 PM 41.1056 -95.3708 80° East 471 542 35,000  Level Minneapolis Center
Tue 01:51:04 PM 41.1278 -95.2003 80° East 472 543 35,000  Level Minneapolis Center
Tue 01:52:07 PM 41.1539 -94.9958 80° East 471 542 35,000  Level Minneapolis Center
Tue 01:53:08 PM 41.1753 -94.8233 81° East 472 543 35,000  Level Minneapolis Center
Tue 01:54:10 PM 41.1944 -94.6511 82° East 474 545 35,000  Level Minneapolis Center
Tue 01:55:11 PM 41.2142 -94.4817 81° East 469 540 35,000  Level Minneapolis Center
Tue 01:56:13 PM 41.2344 -94.3111 81° East 468 539 35,000  Level Minneapolis Center
Tue 01:57:15 PM 41.2544 -94.1456 81° East 471 542 35,000  Level Minneapolis Center
Tue 01:58:16 PM 41.2722 -93.9772 82° East 467 537 35,000  Level Minneapolis Center
Tue 01:59:18 PM 41.2969 -93.7739 81° East 467 537 35,000  Level Minneapolis Center
Tue 02:00:21 PM 41.3114 -93.6033 84° East 467 537 35,000  Level Minneapolis Center
Tue 02:01:23 PM 41.3233 -93.4303 85° East 470 541 35,000  Level Minneapolis Center
Tue 02:02:24 PM 41.3356 -93.2600 84° East 468 539 35,000  Level Minneapolis Center
Tue 02:03:26 PM 41.3467 -93.0911 85° East 464 534 35,000  Level Minneapolis Center
Tue 02:04:28 PM 41.3597 -92.8886 85° East 461 531 35,000  Level Minneapolis Center
Tue 02:05:29 PM 41.3714 -92.7222 85° East 457 526 35,000  Level Minneapolis Center
Tue 02:06:24 PM 41.3789 -92.5847 86° East 458 527 35,000  Level Chicago Center
Tue 02:07:26 PM 41.3889 -92.4158 85° East 460 529 35,000  Level Chicago Center
Tue 02:08:28 PM 41.4000 -92.2314 85° East 459 528 35,000  Level Chicago Center
Tue 02:09:30 PM 41.4100 -92.0661 85° East 458 527 35,000  Level Chicago Center
Tue 02:10:32 PM 41.4219 -91.8667 85° East 456 525 35,000  Level Chicago Center
Tue 02:11:33 PM 41.4311 -91.6992 86° East 457 526 35,000  Level Chicago Center
Tue 02:12:35 PM 41.4400 -91.5325 86° East 456 525 35,000  Level Chicago Center
Tue 02:13:37 PM 41.4483 -91.3661 86° East 456 525 35,000  Level Chicago Center
Tue 02:14:39 PM 41.4567 -91.2017 86° East 454 522 35,000  Level Chicago Center
Tue 02:15:41 PM 41.4642 -91.0339 87° East 453 521 35,000  Level Chicago Center
Tue 02:16:43 PM 41.4750 -90.8328 86° East 453 521 35,000  Level Chicago Center
Tue 02:17:44 PM 41.4828 -90.6639 86° East 454 522 35,000  Level Chicago Center
Tue 02:18:46 PM 41.4886 -90.4969 87° East 451 519 35,000  Level Chicago Center
Tue 02:19:48 PM 41.4967 -90.3283 93° East 453 521 35,000  Level Chicago Center
Tue 02:20:00 PM 41.4816 -90.2967 93° East  Level FlightAware Approximate
Tue 02:20:50 PM 41.5033 -90.1600 87° East 454 522 35,000  Level Chicago Center
Tue 02:21:52 PM 41.5106 -89.9933 87° East 448 516 35,000  Level Chicago Center
Tue 02:22:54 PM 41.5172 -89.8253 87° East 452 520 35,000  Level Chicago Center
Tue 02:23:55 PM 41.5236 -89.6572 87° East 450 518 35,000  Level Chicago Center
Tue 02:24:57 PM 41.5314 -89.4539 87° East 455 524 35,000  Level Chicago Center
Tue 02:25:59 PM 41.5358 -89.2864 88° East 452 520 35,000  Level Chicago Center
Tue 02:27:01 PM 41.5397 -89.1172 88° East 449 517 35,000  Level Chicago Center
Tue 02:28:03 PM 41.5456 -88.9517 87° East 449 517 35,000  Level Chicago Center
Tue 02:29:05 PM 41.5503 -88.7869 88° East 448 516 35,000  Level Chicago Center
Tue 02:30:07 PM 41.5547 -88.6214 88° East 448 516 35,000  Level Chicago Center
Tue 02:31:09 PM 41.5606 -88.4214 88° East 451 519 35,000  Level Chicago Center
Tue 02:32:11 PM 41.5617 -88.2550 89° East 449 517 35,000  Level Chicago Center
Tue 02:33:13 PM 41.5628 -88.0864 89° East 447 514 35,000  Level Chicago Center
Tue 02:34:15 PM 41.5647 -87.9175 89° East 448 516 35,000  Level Chicago Center
Tue 02:35:17 PM 41.5647 -87.7522 90° East 445 512 35,000  Level Chicago Center
Tue 02:36:19 PM 41.5656 -87.5894 90° East 439 505 35,000  Level Chicago Center
Tue 02:37:21 PM 41.5661 -87.4269 90° East 440 506 35,000  Level Chicago Center
Tue 02:38:23 PM 41.5664 -87.2664 90° East 437 503 35,000  Level Chicago Center
Tue 02:39:25 PM 41.5672 -87.0708 90° East 440 506 35,000  Level Chicago Center
Tue 02:40:27 PM 41.5667 -86.9089 90° East 439 505 35,000  Level Chicago Center
Tue 02:41:29 PM 41.5650 -86.7450 91° East 443 510 35,000  Level Chicago Center
Tue 02:42:31 PM 41.5653 -86.5906 90° East 439 505 35,000  Level Chicago Center
Tue 02:43:33 PM 41.5636 -86.3961 91° East 438 504 35,000  Level Chicago Center
Tue 02:44:35 PM 41.5631 -86.2344 90° East 438 504 35,000  Level Chicago Center
Tue 02:46:00 PM 41.5500 -86.0053 90° East  Level FlightAware Approximate
Tue 02:46:39 PM 41.5592 -85.9100 90° East 440 506 35,000  Level Chicago Center
Tue 02:47:42 PM 41.5575 -85.7494 91° East 436 502 35,000  Level Chicago Center
Tue 02:48:44 PM 41.5547 -85.5908 91° East 434 499 35,000  Level Chicago Center
Tue 02:49:46 PM 41.5522 -85.4064 91° East 432 497 35,000  Level Chicago Center
Tue 02:50:48 PM 41.5514 -85.2475 90° East 439 505 35,000  Level Chicago Center
Tue 02:51:50 PM 41.5486 -85.0878 91° East 435 501 35,000  Level Chicago Center
Tue 02:52:52 PM 41.5453 -84.8936 91° East 439 505 35,000  Level Chicago Center
Tue 02:53:54 PM 41.5414 -84.7314 92° East 440 506 35,000  Level Chicago Center
Tue 02:54:56 PM 41.5372 -84.5689 92° East 439 505 35,000  Level Chicago Center
Tue 02:55:33 PM 41.5375 -84.4728 90° East 441 507 35,000  Level Cleveland Center
Tue 02:56:33 PM 41.5325 -84.3086 92° East 441 507 35,000  Level Cleveland Center
Tue 02:57:33 PM 41.5236 -84.1278 94° East 441 507 35,000  Level Cleveland Center
Tue 02:58:33 PM 41.5200 -83.9667 92° East 441 507 35,000  Level Cleveland Center
Tue 02:59:33 PM 41.5164 -83.8058 92° East 441 507 35,000  Level Cleveland Center
Tue 03:00:33 PM 41.5103 -83.6475 93° East 441 507 35,000  Level Cleveland Center
Tue 03:01:33 PM 41.5064 -83.4836 92° East 441 507 35,000  Level Cleveland Center
Tue 03:02:33 PM 41.4997 -83.3225 93° East 441 507 35,000  Level Cleveland Center
Tue 03:03:33 PM 41.4975 -83.1586 91° East 441 507 35,000  Level Cleveland Center
Tue 03:04:33 PM 41.4922 -83.0144 93° East 441 507 35,000  Level Cleveland Center
Tue 03:05:33 PM 41.4850 -82.8506 93° East 441 507 35,000  Level Cleveland Center
Tue 03:06:33 PM 41.4800 -82.6869 92° East 447 514 35,000  Level Cleveland Center
Tue 03:07:33 PM 41.4725 -82.5203 93° East 442 509 35,000  Level Cleveland Center
Tue 03:08:33 PM 41.4667 -82.3594 93° East 442 509 35,000  Level Cleveland Center
Tue 03:09:33 PM 41.4608 -82.1958 93° East 442 509 35,000  Level Cleveland Center
Tue 03:10:33 PM 41.4528 -82.0208 93° East 442 509 35,000  Level Cleveland Center
Tue 03:11:33 PM 41.4461 -81.8631 93° East 442 509 35,000  Level Cleveland Center
Tue 03:12:33 PM 41.4417 -81.7022 92° East 437 503 35,000  Level Cleveland Center
Tue 03:13:33 PM 41.4328 -81.5414 94° East 437 503 35,000  Level Cleveland Center
Tue 03:14:33 PM 41.4233 -81.3972 95° East 437 503 35,000  Level Cleveland Center
Tue 03:15:33 PM 41.4139 -81.2422 95° East 432 497 35,000  Level Cleveland Center
Tue 03:16:33 PM 41.4064 -81.0842 94° East 426 490 35,000  Level Cleveland Center
Tue 03:17:33 PM 41.3986 -80.9236 94° East 426 490 35,000  Level Cleveland Center
Tue 03:18:33 PM 41.3886 -80.7603 95° East 426 490 35,000  Level Cleveland Center
Tue 03:19:33 PM 41.3783 -80.5886 95° East 426 490 35,000  Level Cleveland Center
Tue 03:20:33 PM 41.3719 -80.4281 93° East 426 490 35,000  Level Cleveland Center
Tue 03:21:33 PM 41.3633 -80.2817 94° East 426 490 35,000  Level Cleveland Center
Tue 03:22:33 PM 41.3544 -80.1239 94° East 426 490 35,000  Level Cleveland Center
Tue 03:23:33 PM 41.3433 -79.9497 95° East 420 483 35,000  Level Cleveland Center
Tue 03:24:33 PM 41.3339 -79.7922 95° East 425 489 35,000  Level Cleveland Center
Tue 03:25:33 PM 41.3247 -79.6653 95° East 425 489 35,000  Level Cleveland Center
Tue 03:26:33 PM 41.3147 -79.4883 94° East 425 489 35,000  Level Cleveland Center
Tue 03:27:33 PM 41.3047 -79.3311 95° East 425 489 35,000  Level Cleveland Center
Tue 03:28:33 PM 41.2906 -79.1656 96° East 420 483 35,000  Level Cleveland Center
Tue 03:29:33 PM 41.2800 -79.0053 95° East 420 483 35,000  Level Cleveland Center
Tue 03:30:33 PM 41.2697 -78.8619 95° East 420 483 35,000  Level Cleveland Center
Tue 03:31:33 PM 41.2589 -78.7047 95° East 425 489 35,000  Level Cleveland Center
Tue 03:32:33 PM 41.2456 -78.5478 96° East 425 489 35,000  Level Cleveland Center
Tue 03:34:04 PM 41.2269 -78.2917 95° East 435 501 35,000 -667 Level New York Center
Tue 03:35:06 PM 41.2139 -78.1328 96° East 425 489 33,300 -984 Descending New York Center
Tue 03:36:06 PM 41.1944 -77.9736 99° East 435 501 33,000 -153 Descending New York Center
Tue 03:37:04 PM 41.1728 -77.8142 100° East 434 499 33,000  Level New York Center
Tue 03:38:04 PM 41.1550 -77.6578 99° East 429 494 33,000 -198 Level New York Center
Tue 03:39:05 PM 41.1328 -77.4986 100° East 434 499 32,600 -893 Descending New York Center
Tue 03:40:05 PM 41.1133 -77.3617 101° East 434 499 31,200 -1,462 Descending New York Center
Tue 03:41:04 PM 41.0931 -77.2000 99° East 434 499 29,700 -1,613 Descending New York Center
Tue 03:42:04 PM 41.0722 -77.0436 100° East 434 499 28,000 -1,785 Descending New York Center
Tue 03:43:05 PM 41.0511 -76.8931 100° East 429 494 26,100 -1,820 Descending New York Center
Tue 03:44:06 PM 41.0314 -76.7456 100° East 416 479 24,300 -1,831 Descending New York Center
Tue 03:45:03 PM 41.0072 -76.6058 103° East 405 466 22,500 -1,831 Descending New York Center
Tue 03:46:04 PM 40.9719 -76.4708 109° East 392 451 20,700 -1,918 Descending New York Center
Tue 03:47:05 PM 40.9414 -76.3256 106° East 380 437 18,600 -1,426 Descending New York Center
Tue 03:48:06 PM 40.9133 -76.2106 108° East 372 428 17,800 -950 Descending New York Center
Tue 03:49:05 PM 40.8839 -76.0819 107° East 372 428 16,700 -1,361 Descending New York Center
Tue 03:50:05 PM 40.8519 -75.9589 109° East 372 428 15,100 -1,438 Descending New York Center
Tue 03:51:06 PM 40.8200 -75.8275 108° East 354 407 13,800 -1,068 Descending New York Center
Tue 03:52:03 PM 40.7931 -75.7242 109° East 341 392 13,000 -407 Descending New York Center
Tue 03:53:04 PM 40.7631 -75.5986 107° East 335 386 13,000  Level New York Center
Tue 03:54:05 PM 40.7381 -75.4956 108° East 335 386 13,000 -100 Level New York Center
Tue 03:55:04 PM 40.7114 -75.3786 107° East 330 380 12,800 -555 Descending New York Center
Tue 03:56:04 PM 40.6886 -75.2650 105° East 330 380 11,900 -1,041 Descending New York Center
Tue 03:57:05 PM 40.6617 -75.1456 107° East 315 362 10,700 -934 Descending New York Center
Tue 03:58:06 PM 40.6064 -75.0656 132° Southeast 290 334 10,000 -347 Descending New York Center
Tue 03:59:06 PM 40.5594 -74.9833 127° Southeast 285 328 10,000  Level New York Center
Tue 04:00:05 PM 40.5333 -74.8942 111° Southeast 285 328 10,000 53 Level New York Center
Tue 04:01:00 PM 40.5000 -74.7833 112° Southeast 288 331 10,100 52 Climbing New York TRACON
Tue 04:02:00 PM 40.4667 -74.6833 114° Southeast 284 327 10,100  Level New York TRACON
Tue 04:03:00 PM 40.4500 -74.6000 105° East 286 329 10,100 -50 Level New York TRACON
Tue 04:04:00 PM 40.4333 -74.5000 102° East 290 334 10,000 -550 Descending New York TRACON
Tue 04:05:00 PM 40.4167 -74.4000 102° East 288 331 9,000 -950 Descending New York TRACON
Tue 04:06:00 PM 40.4000 -74.3000 102° East 287 330 8,100 -450 Descending New York TRACON
Tue 04:07:00 PM 40.4500 -74.2167 52° Northeast 275 316 8,100  Level New York TRACON
Tue 04:08:00 PM 40.5167 -74.1667 30° Northeast 275 316 8,100 -684 Level New York TRACON
Tue 04:08:54 PM 40.5667 -74.1000 45° Northeast 269 310 6,800 -1,900 Descending New York TRACON
Tue 04:10:00 PM 40.6333 -74.0500 30° Northeast 265 305 4,300 -1,286 Descending New York TRACON
Tue 04:11:00 PM 40.7000 -74.0333 11° North 267 307 4,100 -600 Descending New York TRACON
Tue 04:12:00 PM 40.7667 -74.0000 21° North 256 295 3,100 -500 Descending New York TRACON
Tue 04:13:00 PM 40.8333 -73.9500 30° Northeast 252 290 3,100  Level New York TRACON
Tue 04:14:00 PM 40.8833 -73.9167 27° Northeast 219 252 3,100 -500 Level New York TRACON
Tue 04:15:00 PM 40.9000 -73.8500 72° East 219 252 2,100 -526 Descending New York TRACON
Tue 04:15:54 PM 40.8833 -73.8000 114° Southeast 188 216 2,100 -450 Level New York TRACON
Tue 04:17:00 PM 40.8333 -73.8333 207° Southwest 164 189 1,200 -762 Descending New York TRACON
Tue 04:18:00 PM 40.8000 -73.8500 201° Southwest 137 158 500 -700 Descending New York TRACON
Tue 04:19:00 PM 40.7667 -73.8667 185° South  Level FlightAware Approximate
Tue 04:26:00 PM 40.7772 -73.8726 185° South  Level Estimated
Tue 04:27:00 PM 40.7772 -73.8726 185° South  Level Estimated

Login

Don't have an account? Register now (free) for customized features, flight alerts, and more!